EST,Max TemperatureF,Mean TemperatureF,Min TemperatureF,Max Dew PointF,MeanDew PointF,Min DewpointF,Max Humidity, Mean Humidity, Min Humidity, Max Sea Level PressureIn, Mean Sea Level PressureIn, Min Sea Level PressureIn, Max VisibilityMiles, Mean VisibilityMiles, Min VisibilityMiles, Max Wind SpeedMPH, Mean Wind SpeedMPH, Max Gust SpeedMPH,PrecipitationIn, CloudCover, Events, WindDirDegrees
2011-12-1,36,28,19,35,28,20,100,99,93,30.35,30.30,30.22,10,10,9,8,5,,0.00,1,,191
2011-12-2,38,32,27,38,32,28,100,100,99,30.48,30.41,30.28,10,8,2,9,7,,0.00,2,,27
2011-12-3,46,38,30,43,38,30,100,98,73,30.43,30.30,30.09,10,10,6,17,9,,0.00,5,Rain,151
2011-12-4,50,44,38,50,45,37,100,97,66,30.22,30.10,30.00,10,9,4,29,16,38,0.51,8,Rain,240
2011-12-5,39,36,32,39,37,32,100,100,99,30.25,30.20,30.14,10,6,3,18,8,21,0.71,8,Rain-Snow,10
2011-12-6,33,31,28,34,32,29,100,99,92,30.25,30.19,30.12,10,10,10,16,9,20,0.00,8,Snow,12
2011-12-7,34,30,25,34,29,25,100,98,85,30.13,30.08,30.02,10,10,10,16,8,,0.00,3,,285
2011-12-8,34,28,21,34,29,22,100,100,99,30.27,30.22,30.14,10,10,9,14,8,,0.00,5,,228
2011-12-9,33,25,16,34,30,16,100,100,93,30.45,30.23,30.19,10,4,2,13,5,,0.04,7,Snow,286
2011-12-10,23,16,10,16,13,8,99,85,50,30.58,30.53,30.46,10,10,10,13,7,,0.00,0,,253
2011-12-11,38,28,17,28,24,16,99,90,63,30.57,30.50,30.45,10,10,10,13,8,,0.00,0,,184
2011-12-12,43,32,21,32,26,20,99,83,39,30.48,30.44,30.41,10,10,10,7,4,,0.00,1,,158
2011-12-13,41,36,30,42,37,31,100,100,99,30.47,30.39,30.30,10,7,2,9,5,,0.03,8,Rain,158
2011-12-14,55,46,37,55,45,37,100,100,99,30.32,30.14,29.83,10,4,1,25,9,36,0.77,8,Rain,173
2011-12-15,57,45,33,57,53,32,100,100,95,30.23,29.81,29.72,10,6,2,31,22,40,0.63,8,Rain,227
2011-12-16,35,31,26,34,30,27,100,95,81,30.40,30.33,30.24,10,10,10,16,9,,0.00,4,,294
2011-12-17,32,29,26,32,29,26,100,100,99,30.35,30.29,30.20,10,8,2,10,6,,0.00,6,Snow,242
2011-12-18,43,34,24,41,33,25,100,99,84,30.28,30.21,30.04,10,9,4,18,9,,0.00,3,,226
2011-12-19,50,44,38,50,45,39,100,100,99,30.16,30.04,29.96,10,10,10,22,14,25,0.00,8,Rain,248
2011-12-20,44,38,33,45,38,34,100,100,100,30.17,30.04,29.81,10,8,2,13,9,,0.34,8,Rain,84
2011-12-21,48,44,39,48,45,39,100,100,100,29.98,29.72,29.63,10,4,0,23,8,29,0.05,7,Fog-Rain,194
2011-12-22,42,38,34,43,40,34,100,100,100,30.14,30.08,30.00,10,9,5,12,4,,0.00,7,Rain,281
2011-12-23,37,33,29,37,33,27,100,96,73,30.38,30.26,30.15,10,10,10,16,8,22,0.00,7,Rain,317
2011-12-24,38,31,24,34,30,25,100,97,81,30.40,30.33,30.27,10,10,9,17,11,,0.00,2,,227
2011-12-25,43,37,29,37,34,30,100,94,76,30.33,30.20,30.11,10,10,10,22,14,29,0.00,2,,260
2011-12-26,44,34,24,37,32,25,100,93,57,30.37,30.22,29.95,10,10,10,15,6,,0.00,0,,189
2011-12-27,35,34,32,36,33,32,100,100,99,29.93,29.71,29.51,10,4,0,20,5,25,0.29,8,Fog-Rain-Snow,278
2011-12-28,32,27,22,32,28,22,100,100,99,30.09,30.02,29.92,10,10,10,14,9,21,0.00,6,,270
2011-12-29,47,39,31,47,37,32,100,100,97,29.92,29.73,29.59,10,10,10,22,13,28,0.00,3,Rain,209
2011-12-30,46,42,37,46,42,37,100,100,100,29.76,29.61,29.47,10,9,4,23,12,34,0.27,8,Rain,199
2011-12-31,39,37,35,40,38,36,100,100,100,30.07,29.86,29.71,10,7,2,20,12,24,0.00,8,,258